sensor_id;sensor_type;location;lat;lon;timestamp;pressure;altitude;pressure_sealevel;temperature;humidity
31911;BME280;18457;52.432;16.914;2023-08-30T00:02:08;99443.22;;;17.67;100.00
31911;BME280;18457;52.432;16.914;2023-08-30T00:04:41;99450.44;;;17.66;100.00
31911;BME280;18457;52.432;16.914;2023-08-30T00:07:13;99452.23;;;17.61;100.00
31911;BME280;18457;52.432;16.914;2023-08-30T00:09:45;99456.84;;;17.63;100.00
31911;BME280;18457;52.432;16.914;2023-08-30T00:12:17;99457.67;;;17.61;100.00
31911;BME280;18457;52.432;16.914;2023-08-30T00:14:49;99460.11;;;17.58;100.00
31911;BME280;18457;52.432;16.914;2023-08-30T00:17:21;99454.98;;;17.53;100.00
31911;BME280;18457;52.432;16.914;2023-08-30T00:19:53;99452.56;;;17.56;100.00
31911;BME280;18457;52.432;16.914;2023-08-30T00:22:24;99446.08;;;17.43;100.00
31911;BME280;18457;52.432;16.914;2023-08-30T00:24:58;99451.93;;;17.41;100.00
31911;BME280;18457;52.432;16.914;2023-08-30T00:27:29;99450.48;;;17.54;100.00
31911;BME280;18457;52.432;16.914;2023-08-30T00:30:02;99448.20;;;17.50;100.00
31911;BME280;18457;52.432;16.914;2023-08-30T00:32:37;99447.13;;;17.44;100.00
31911;BME280;18457;52.432;16.914;2023-08-30T00:35:33;99452.80;;;17.41;100.00
31911;BME280;18457;52.432;16.914;2023-08-30T00:38:05;99454.26;;;17.39;100.00
31911;BME280;18457;52.432;16.914;2023-08-30T00:40:41;99456.63;;;17.41;100.00
31911;BME280;18457;52.432;16.914;2023-08-30T00:43:13;99456.68;;;17.38;100.00
31911;BME280;18457;52.432;16.914;2023-08-30T00:45:45;99454.17;;;17.40;100.00
31911;BME280;18457;52.432;16.914;2023-08-30T00:48:20;99456.23;;;17.31;100.00
31911;BME280;18457;52.432;16.914;2023-08-30T00:50:54;99453.56;;;17.38;100.00
31911;BME280;18457;52.432;16.914;2023-08-30T00:53:26;99459.30;;;17.42;100.00
31911;BME280;18457;52.432;16.914;2023-08-30T00:55:58;99458.80;;;17.36;100.00
31911;BME280;18457;52.432;16.914;2023-08-30T00:58:30;99454.33;;;17.46;100.00
31911;BME280;18457;52.432;16.914;2023-08-30T01:01:03;99452.09;;;17.52;100.00
31911;BME280;18457;52.432;16.914;2023-08-30T01:03:39;99446.89;;;17.51;100.00
31911;BME280;18457;52.432;16.914;2023-08-30T01:06:11;99451.79;;;17.54;100.00
31911;BME280;18457;52.432;16.914;2023-08-30T01:08:44;99447.82;;;17.50;100.00
31911;BME280;18457;52.432;16.914;2023-08-30T01:11:21;99448.80;;;17.47;100.00
31911;BME280;18457;52.432;16.914;2023-08-30T01:14:01;99448.69;;;17.48;100.00
31911;BME280;18457;52.432;16.914;2023-08-30T01:16:36;99445.15;;;17.38;100.00
31911;BME280;18457;52.432;16.914;2023-08-30T01:19:25;99449.71;;;17.33;100.00
31911;BME280;18457;52.432;16.914;2023-08-30T01:22:02;99449.82;;;17.26;100.00
31911;BME280;18457;52.432;16.914;2023-08-30T01:24:52;99445.05;;;17.29;100.00
31911;BME280;18457;52.432;16.914;2023-08-30T01:27:29;99442.22;;;17.28;100.00
31911;BME280;18457;52.432;16.914;2023-08-30T01:30:10;99437.88;;;17.24;100.00
31911;BME280;18457;52.432;16.914;2023-08-30T01:33:08;99432.80;;;17.27;100.00
31911;BME280;18457;52.432;16.914;2023-08-30T01:35:41;99434.41;;;17.24;100.00
31911;BME280;18457;52.432;16.914;2023-08-30T01:38:14;99433.54;;;17.26;100.00
31911;BME280;18457;52.432;16.914;2023-08-30T01:40:45;99432.47;;;17.28;100.00
31911;BME280;18457;52.432;16.914;2023-08-30T01:43:19;99428.83;;;17.28;100.00
31911;BME280;18457;52.432;16.914;2023-08-30T01:45:53;99424.23;;;17.34;100.00
31911;BME280;18457;52.432;16.914;2023-08-30T01:48:28;99429.72;;;17.39;100.00
31911;BME280;18457;52.432;16.914;2023-08-30T01:51:01;99433.85;;;17.46;100.00
31911;BME280;18457;52.432;16.914;2023-08-30T01:53:33;99431.90;;;17.53;100.00
31911;BME280;18457;52.432;16.914;2023-08-30T01:56:04;99430.14;;;17.47;100.00
31911;BME280;18457;52.432;16.914;2023-08-30T01:58:36;99418.48;;;17.41;100.00
31911;BME280;18457;52.432;16.914;2023-08-30T02:01:08;99417.20;;;17.20;100.00
31911;BME280;18457;52.432;16.914;2023-08-30T02:03:43;99412.55;;;17.34;100.00
31911;BME280;18457;52.432;16.914;2023-08-30T02:06:20;99419.98;;;17.46;100.00
31911;BME280;18457;52.432;16.914;2023-08-30T02:08:57;99422.77;;;17.48;100.00
31911;BME280;18457;52.432;16.914;2023-08-30T02:11:32;99415.79;;;17.46;100.00
31911;BME280;18457;52.432;16.914;2023-08-30T02:14:06;99417.33;;;17.42;100.00
31911;BME280;18457;52.432;16.914;2023-08-30T02:16:40;99420.79;;;17.34;100.00
31911;BME280;18457;52.432;16.914;2023-08-30T02:19:13;99422.19;;;17.30;100.00
31911;BME280;18457;52.432;16.914;2023-08-30T02:21:47;99423.67;;;17.34;100.00
31911;BME280;18457;52.432;16.914;2023-08-30T02:24:21;99427.02;;;17.36;100.00
31911;BME280;18457;52.432;16.914;2023-08-30T02:26:53;99429.42;;;17.47;100.00
31911;BME280;18457;52.432;16.914;2023-08-30T02:29:25;99428.55;;;17.38;100.00
31911;BME280;18457;52.432;16.914;2023-08-30T02:31:57;99432.61;;;17.43;100.00
31911;BME280;18457;52.432;16.914;2023-08-30T02:34:29;99437.80;;;17.50;100.00
31911;BME280;18457;52.432;16.914;2023-08-30T02:37:01;99442.52;;;17.31;100.00
31911;BME280;18457;52.432;16.914;2023-08-30T02:39:33;99445.02;;;17.35;100.00
31911;BME280;18457;52.432;16.914;2023-08-30T02:42:05;99446.89;;;17.31;100.00
31911;BME280;18457;52.432;16.914;2023-08-30T02:44:37;99447.98;;;17.37;100.00
31911;BME280;18457;52.432;16.914;2023-08-30T02:47:09;99451.13;;;17.41;100.00
31911;BME280;18457;52.432;16.914;2023-08-30T02:49:41;99445.68;;;17.27;100.00
31911;BME280;18457;52.432;16.914;2023-08-30T02:52:13;99442.67;;;17.40;100.00
31911;BME280;18457;52.432;16.914;2023-08-30T02:54:45;99441.92;;;17.34;100.00
31911;BME280;18457;52.432;16.914;2023-08-30T02:57:16;99439.16;;;17.30;100.00
31911;BME280;18457;52.432;16.914;2023-08-30T02:59:49;99438.94;;;17.25;100.00
31911;BME280;18457;52.432;16.914;2023-08-30T03:02:21;99433.63;;;17.22;100.00
31911;BME280;18457;52.432;16.914;2023-08-30T03:04:53;99431.31;;;17.19;100.00
31911;BME280;18457;52.432;16.914;2023-08-30T03:07:24;99425.58;;;17.20;100.00
31911;BME280;18457;52.432;16.914;2023-08-30T03:09:56;99422.27;;;17.20;100.00
31911;BME280;18457;52.432;16.914;2023-08-30T03:12:28;99420.61;;;17.15;100.00
31911;BME280;18457;52.432;16.914;2023-08-30T03:15:00;99419.88;;;17.07;100.00
31911;BME280;18457;52.432;16.914;2023-08-30T03:17:32;99419.43;;;17.03;100.00
31911;BME280;18457;52.432;16.914;2023-08-30T03:20:06;99418.77;;;17.07;100.00
31911;BME280;18457;52.432;16.914;2023-08-30T03:22:38;99412.96;;;17.12;100.00
31911;BME280;18457;52.432;16.914;2023-08-30T03:25:35;99412.14;;;17.19;100.00
31911;BME280;18457;52.432;16.914;2023-08-30T03:28:09;99415.32;;;17.15;100.00
31911;BME280;18457;52.432;16.914;2023-08-30T03:30:41;99420.58;;;17.16;100.00
31911;BME280;18457;52.432;16.914;2023-08-30T03:33:14;99425.90;;;17.15;100.00
31911;BME280;18457;52.432;16.914;2023-08-30T03:35:46;99430.74;;;17.16;100.00
31911;BME280;18457;52.432;16.914;2023-08-30T03:38:18;99424.61;;;17.21;100.00
31911;BME280;18457;52.432;16.914;2023-08-30T03:40:55;99430.60;;;17.16;100.00
31911;BME280;18457;52.432;16.914;2023-08-30T03:43:27;99434.96;;;17.19;100.00
31911;BME280;18457;52.432;16.914;2023-08-30T03:46:00;99436.27;;;17.21;100.00
31911;BME280;18457;52.432;16.914;2023-08-30T03:48:33;99439.45;;;17.25;100.00
31911;BME280;18457;52.432;16.914;2023-08-30T03:51:06;99443.54;;;17.24;100.00
31911;BME280;18457;52.432;16.914;2023-08-30T03:53:38;99445.77;;;17.18;100.00
31911;BME280;18457;52.432;16.914;2023-08-30T03:56:09;99447.86;;;17.22;100.00
31911;BME280;18457;52.432;16.914;2023-08-30T03:58:41;99444.42;;;17.19;100.00
31911;BME280;18457;52.432;16.914;2023-08-30T04:01:14;99438.09;;;17.21;100.00
31911;BME280;18457;52.432;16.914;2023-08-30T04:03:47;99436.52;;;17.15;100.00
31911;BME280;18457;52.432;16.914;2023-08-30T04:06:19;99433.95;;;17.07;100.00
31911;BME280;18457;52.432;16.914;2023-08-30T04:08:52;99425.61;;;17.08;100.00
31911;BME280;18457;52.432;16.914;2023-08-30T04:11:24;99419.11;;;17.07;100.00
31911;BME280;18457;52.432;16.914;2023-08-30T04:13:56;99409.91;;;17.09;100.00
31911;BME280;18457;52.432;16.914;2023-08-30T04:16:29;99406.33;;;17.08;100.00
31911;BME280;18457;52.432;16.914;2023-08-30T04:19:01;99411.98;;;17.19;100.00
31911;BME280;18457;52.432;16.914;2023-08-30T04:21:33;99415.02;;;17.09;100.00
31911;BME280;18457;52.432;16.914;2023-08-30T04:24:06;99406.91;;;17.21;100.00
31911;BME280;18457;52.432;16.914;2023-08-30T04:26:39;99408.67;;;17.16;100.00
31911;BME280;18457;52.432;16.914;2023-08-30T04:29:11;99405.27;;;17.10;100.00
31911;BME280;18457;52.432;16.914;2023-08-30T04:31:44;99407.67;;;17.07;100.00
31911;BME280;18457;52.432;16.914;2023-08-30T04:34:16;99405.56;;;17.00;100.00
31911;BME280;18457;52.432;16.914;2023-08-30T04:36:50;99404.32;;;17.13;100.00
31911;BME280;18457;52.432;16.914;2023-08-30T04:39:23;99410.09;;;17.14;100.00
31911;BME280;18457;52.432;16.914;2023-08-30T04:41:55;99415.98;;;17.16;100.00
31911;BME280;18457;52.432;16.914;2023-08-30T04:44:28;99419.10;;;17.21;100.00
31911;BME280;18457;52.432;16.914;2023-08-30T04:47:02;99420.39;;;17.19;100.00
31911;BME280;18457;52.432;16.914;2023-08-30T04:49:37;99424.20;;;17.08;100.00
31911;BME280;18457;52.432;16.914;2023-08-30T04:52:09;99432.09;;;17.12;100.00
31911;BME280;18457;52.432;16.914;2023-08-30T04:54:41;99432.15;;;17.06;100.00
31911;BME280;18457;52.432;16.914;2023-08-30T04:57:14;99436.06;;;17.13;100.00
31911;BME280;18457;52.432;16.914;2023-08-30T04:59:47;99435.05;;;17.12;100.00
31911;BME280;18457;52.432;16.914;2023-08-30T05:02:20;99446.48;;;17.08;100.00
31911;BME280;18457;52.432;16.914;2023-08-30T05:05:01;99450.25;;;17.14;100.00
31911;BME280;18457;52.432;16.914;2023-08-30T05:07:33;99458.09;;;17.14;100.00
31911;BME280;18457;52.432;16.914;2023-08-30T05:10:11;99459.79;;;16.94;100.00
31911;BME280;18457;52.432;16.914;2023-08-30T05:13:07;99451.77;;;16.94;100.00
31911;BME280;18457;52.432;16.914;2023-08-30T05:15:39;99453.06;;;16.96;100.00
31911;BME280;18457;52.432;16.914;2023-08-30T05:18:11;99459.06;;;16.91;100.00
31911;BME280;18457;52.432;16.914;2023-08-30T05:20:43;99454.00;;;16.88;100.00
31911;BME280;18457;52.432;16.914;2023-08-30T05:23:15;99450.21;;;16.79;100.00
31911;BME280;18457;52.432;16.914;2023-08-30T05:25:48;99451.48;;;16.84;100.00
31911;BME280;18457;52.432;16.914;2023-08-30T05:28:21;99442.86;;;16.82;100.00
31911;BME280;18457;52.432;16.914;2023-08-30T05:30:54;99447.60;;;16.82;100.00
31911;BME280;18457;52.432;16.914;2023-08-30T05:33:40;99442.42;;;16.78;100.00
31911;BME280;18457;52.432;16.914;2023-08-30T05:36:30;99441.91;;;16.83;100.00
31911;BME280;18457;52.432;16.914;2023-08-30T05:39:18;99440.77;;;16.86;100.00
31911;BME280;18457;52.432;16.914;2023-08-30T05:41:54;99442.48;;;16.82;100.00
31911;BME280;18457;52.432;16.914;2023-08-30T05:44:26;99444.38;;;16.93;100.00
31911;BME280;18457;52.432;16.914;2023-08-30T05:46:58;99449.11;;;16.85;100.00
31911;BME280;18457;52.432;16.914;2023-08-30T05:49:30;99451.52;;;16.79;100.00
31911;BME280;18457;52.432;16.914;2023-08-30T05:52:02;99454.69;;;16.75;100.00
31911;BME280;18457;52.432;16.914;2023-08-30T05:54:34;99455.92;;;16.73;100.00
31911;BME280;18457;52.432;16.914;2023-08-30T05:57:06;99456.92;;;16.77;100.00
31911;BME280;18457;52.432;16.914;2023-08-30T05:59:38;99459.99;;;16.74;100.00
31911;BME280;18457;52.432;16.914;2023-08-30T06:02:10;99462.98;;;16.76;100.00
31911;BME280;18457;52.432;16.914;2023-08-30T06:04:42;99465.95;;;16.81;100.00
31911;BME280;18457;52.432;16.914;2023-08-30T06:07:14;99457.46;;;16.85;100.00
31911;BME280;18457;52.432;16.914;2023-08-30T06:09:46;99457.20;;;16.86;100.00
31911;BME280;18457;52.432;16.914;2023-08-30T06:12:18;99457.30;;;16.85;100.00
31911;BME280;18457;52.432;16.914;2023-08-30T06:14:50;99459.24;;;16.91;100.00
31911;BME280;18457;52.432;16.914;2023-08-30T06:17:22;99458.19;;;17.02;100.00
31911;BME280;18457;52.432;16.914;2023-08-30T06:19:54;99452.35;;;17.04;100.00
31911;BME280;18457;52.432;16.914;2023-08-30T06:22:26;99456.69;;;16.94;100.00
31911;BME280;18457;52.432;16.914;2023-08-30T06:24:58;99454.45;;;16.95;100.00
31911;BME280;18457;52.432;16.914;2023-08-30T06:27:31;99462.17;;;16.97;100.00
31911;BME280;18457;52.432;16.914;2023-08-30T06:30:03;99467.40;;;16.95;100.00
31911;BME280;18457;52.432;16.914;2023-08-30T06:32:35;99464.10;;;16.92;100.00
31911;BME280;18457;52.432;16.914;2023-08-30T06:35:37;99463.73;;;16.87;100.00
31911;BME280;18457;52.432;16.914;2023-08-30T06:38:10;99460.88;;;16.89;100.00
31911;BME280;18457;52.432;16.914;2023-08-30T06:40:45;99467.81;;;16.83;100.00
31911;BME280;18457;52.432;16.914;2023-08-30T06:43:18;99462.14;;;16.83;100.00
31911;BME280;18457;52.432;16.914;2023-08-30T06:45:50;99465.58;;;16.92;100.00
31911;BME280;18457;52.432;16.914;2023-08-30T06:48:23;99467.88;;;16.96;100.00
31911;BME280;18457;52.432;16.914;2023-08-30T06:50:58;99469.68;;;17.07;100.00
31911;BME280;18457;52.432;16.914;2023-08-30T06:53:30;99470.98;;;17.07;100.00
31911;BME280;18457;52.432;16.914;2023-08-30T06:56:03;99467.36;;;17.09;100.00
31911;BME280;18457;52.432;16.914;2023-08-30T06:58:34;99477.93;;;17.01;100.00
31911;BME280;18457;52.432;16.914;2023-08-30T07:01:07;99470.95;;;17.10;100.00
31911;BME280;18457;52.432;16.914;2023-08-30T07:03:39;99476.46;;;16.99;100.00
31911;BME280;18457;52.432;16.914;2023-08-30T07:06:12;99467.58;;;17.01;100.00
31911;BME280;18457;52.432;16.914;2023-08-30T07:08:44;99469.09;;;17.08;100.00
31911;BME280;18457;52.432;16.914;2023-08-30T07:11:16;99470.48;;;17.07;100.00
31911;BME280;18457;52.432;16.914;2023-08-30T07:14:04;99474.96;;;17.16;100.00
31911;BME280;18457;52.432;16.914;2023-08-30T07:16:36;99475.46;;;17.16;100.00
31911;BME280;18457;52.432;16.914;2023-08-30T07:19:07;99476.25;;;17.21;100.00
31911;BME280;18457;52.432;16.914;2023-08-30T07:21:40;99479.98;;;17.20;100.00
31911;BME280;18457;52.432;16.914;2023-08-30T07:24:13;99485.08;;;17.23;100.00
31911;BME280;18457;52.432;16.914;2023-08-30T07:26:45;99488.40;;;17.22;100.00
31911;BME280;18457;52.432;16.914;2023-08-30T07:29:19;99488.17;;;17.20;100.00
31911;BME280;18457;52.432;16.914;2023-08-30T07:31:52;99486.45;;;17.21;100.00
31911;BME280;18457;52.432;16.914;2023-08-30T07:34:25;99488.52;;;17.29;100.00
31911;BME280;18457;52.432;16.914;2023-08-30T07:36:57;99489.89;;;17.30;100.00
31911;BME280;18457;52.432;16.914;2023-08-30T07:39:29;99490.06;;;17.38;100.00
31911;BME280;18457;52.432;16.914;2023-08-30T07:42:01;99488.91;;;17.39;100.00
31911;BME280;18457;52.432;16.914;2023-08-30T07:44:34;99490.76;;;17.53;100.00
31911;BME280;18457;52.432;16.914;2023-08-30T07:47:06;99488.84;;;17.49;100.00
31911;BME280;18457;52.432;16.914;2023-08-30T07:49:38;99489.85;;;17.58;100.00
31911;BME280;18457;52.432;16.914;2023-08-30T07:52:10;99498.77;;;17.64;100.00
31911;BME280;18457;52.432;16.914;2023-08-30T07:54:44;99499.73;;;17.69;100.00
31911;BME280;18457;52.432;16.914;2023-08-30T07:57:16;99503.46;;;17.70;100.00
31911;BME280;18457;52.432;16.914;2023-08-30T07:59:48;99506.57;;;17.48;100.00
31911;BME280;18457;52.432;16.914;2023-08-30T08:02:20;99512.89;;;17.60;100.00
31911;BME280;18457;52.432;16.914;2023-08-30T08:04:52;99511.16;;;17.42;100.00
31911;BME280;18457;52.432;16.914;2023-08-30T08:07:24;99513.54;;;17.45;100.00
31911;BME280;18457;52.432;16.914;2023-08-30T08:09:59;99514.30;;;17.42;100.00
31911;BME280;18457;52.432;16.914;2023-08-30T08:12:32;99513.98;;;17.50;100.00
31911;BME280;18457;52.432;16.914;2023-08-30T08:15:05;99519.05;;;17.47;100.00
31911;BME280;18457;52.432;16.914;2023-08-30T08:17:37;99519.45;;;17.50;100.00
31911;BME280;18457;52.432;16.914;2023-08-30T08:20:33;99523.19;;;17.32;100.00
31911;BME280;18457;52.432;16.914;2023-08-30T08:23:07;99520.86;;;17.28;100.00
31911;BME280;18457;52.432;16.914;2023-08-30T08:25:39;99518.97;;;17.37;100.00
31911;BME280;18457;52.432;16.914;2023-08-30T08:28:11;99513.24;;;17.44;100.00
31911;BME280;18457;52.432;16.914;2023-08-30T08:30:43;99517.58;;;17.48;100.00
31911;BME280;18457;52.432;16.914;2023-08-30T08:33:16;99520.38;;;17.41;100.00
31911;BME280;18457;52.432;16.914;2023-08-30T08:35:49;99523.40;;;17.34;100.00
31911;BME280;18457;52.432;16.914;2023-08-30T08:38:22;99523.46;;;17.44;100.00
31911;BME280;18457;52.432;16.914;2023-08-30T08:41:02;99525.75;;;17.37;100.00
31911;BME280;18457;52.432;16.914;2023-08-30T08:43:34;99526.19;;;17.50;100.00
31911;BME280;18457;52.432;16.914;2023-08-30T08:46:08;99523.23;;;17.53;100.00
31911;BME280;18457;52.432;16.914;2023-08-30T08:48:42;99524.15;;;17.47;100.00
31911;BME280;18457;52.432;16.914;2023-08-30T08:51:15;99528.45;;;17.35;100.00
31911;BME280;18457;52.432;16.914;2023-08-30T08:53:48;99532.91;;;17.26;100.00
31911;BME280;18457;52.432;16.914;2023-08-30T08:56:21;99528.98;;;17.29;100.00
31911;BME280;18457;52.432;16.914;2023-08-30T08:58:53;99528.08;;;17.38;100.00
31911;BME280;18457;52.432;16.914;2023-08-30T09:01:25;99533.42;;;17.42;100.00
31911;BME280;18457;52.432;16.914;2023-08-30T09:04:10;99530.60;;;17.44;100.00
31911;BME280;18457;52.432;16.914;2023-08-30T09:06:42;99529.63;;;17.53;100.00
31911;BME280;18457;52.432;16.914;2023-08-30T09:09:15;99532.94;;;17.64;100.00
31911;BME280;18457;52.432;16.914;2023-08-30T09:11:47;99529.52;;;17.60;100.00
31911;BME280;18457;52.432;16.914;2023-08-30T09:14:22;99529.91;;;17.58;100.00
31911;BME280;18457;52.432;16.914;2023-08-30T09:16:57;99532.16;;;17.67;100.00
31911;BME280;18457;52.432;16.914;2023-08-30T09:19:31;99533.16;;;17.66;100.00
31911;BME280;18457;52.432;16.914;2023-08-30T09:22:03;99534.75;;;17.59;100.00
31911;BME280;18457;52.432;16.914;2023-08-30T09:24:41;99535.55;;;17.52;100.00
31911;BME280;18457;52.432;16.914;2023-08-30T09:27:13;99535.23;;;17.51;100.00
31911;BME280;18457;52.432;16.914;2023-08-30T09:29:46;99531.34;;;17.58;100.00
31911;BME280;18457;52.432;16.914;2023-08-30T09:32:23;99529.27;;;17.61;100.00
31911;BME280;18457;52.432;16.914;2023-08-30T09:34:55;99533.80;;;17.54;100.00
31911;BME280;18457;52.432;16.914;2023-08-30T09:37:27;99537.02;;;17.49;100.00
31911;BME280;18457;52.432;16.914;2023-08-30T09:39:59;99542.70;;;17.34;100.00
31911;BME280;18457;52.432;16.914;2023-08-30T09:42:32;99544.73;;;17.40;100.00
31911;BME280;18457;52.432;16.914;2023-08-30T09:45:03;99549.56;;;17.47;100.00
31911;BME280;18457;52.432;16.914;2023-08-30T09:47:36;99545.29;;;17.51;100.00
31911;BME280;18457;52.432;16.914;2023-08-30T09:50:34;99544.89;;;17.52;100.00
31911;BME280;18457;52.432;16.914;2023-08-30T09:53:08;99547.27;;;17.60;100.00
31911;BME280;18457;52.432;16.914;2023-08-30T09:55:42;99546.09;;;17.69;100.00
31911;BME280;18457;52.432;16.914;2023-08-30T09:58:16;99544.70;;;17.60;100.00
31911;BME280;18457;52.432;16.914;2023-08-30T10:00:50;99544.59;;;17.65;100.00
31911;BME280;18457;52.432;16.914;2023-08-30T10:03:23;99540.61;;;17.77;100.00
31911;BME280;18457;52.432;16.914;2023-08-30T10:06:03;99542.03;;;17.70;100.00
31911;BME280;18457;52.432;16.914;2023-08-30T10:08:37;99540.14;;;17.68;100.00
31911;BME280;18457;52.432;16.914;2023-08-30T10:11:11;99533.77;;;17.76;100.00
31911;BME280;18457;52.432;16.914;2023-08-30T10:13:44;99534.42;;;17.88;100.00
31911;BME280;18457;52.432;16.914;2023-08-30T10:16:20;99538.55;;;17.94;100.00
31911;BME280;18457;52.432;16.914;2023-08-30T10:18:59;99538.70;;;18.02;100.00
31911;BME280;18457;52.432;16.914;2023-08-30T10:21:59;99537.77;;;17.97;99.80
31911;BME280;18457;52.432;16.914;2023-08-30T10:24:35;99537.61;;;17.84;99.68
31911;BME280;18457;52.432;16.914;2023-08-30T10:27:27;99538.91;;;17.81;100.00
31911;BME280;18457;52.432;16.914;2023-08-30T10:30:01;99547.73;;;17.67;100.00
31911;BME280;18457;52.432;16.914;2023-08-30T10:32:40;99544.25;;;17.62;100.00
31911;BME280;18457;52.432;16.914;2023-08-30T10:35:46;99548.93;;;17.51;100.00
31911;BME280;18457;52.432;16.914;2023-08-30T10:38:27;99546.10;;;17.44;100.00
31911;BME280;18457;52.432;16.914;2023-08-30T10:41:09;99546.96;;;17.42;100.00
31911;BME280;18457;52.432;16.914;2023-08-30T10:43:41;99545.30;;;17.43;100.00
31911;BME280;18457;52.432;16.914;2023-08-30T10:46:13;99544.23;;;17.39;100.00
31911;BME280;18457;52.432;16.914;2023-08-30T10:48:45;99541.12;;;17.31;100.00
31911;BME280;18457;52.432;16.914;2023-08-30T10:51:37;99539.92;;;17.33;100.00
31911;BME280;18457;52.432;16.914;2023-08-30T10:54:13;99544.86;;;17.35;100.00
31911;BME280;18457;52.432;16.914;2023-08-30T10:56:56;99544.19;;;17.26;100.00
31911;BME280;18457;52.432;16.914;2023-08-30T10:59:30;99547.77;;;17.33;100.00
31911;BME280;18457;52.432;16.914;2023-08-30T11:02:03;99544.43;;;17.25;100.00
31911;BME280;18457;52.432;16.914;2023-08-30T11:04:40;99546.30;;;17.32;100.00
31911;BME280;18457;52.432;16.914;2023-08-30T11:07:13;99553.33;;;17.37;100.00
31911;BME280;18457;52.432;16.914;2023-08-30T11:09:45;99558.20;;;17.35;100.00
31911;BME280;18457;52.432;16.914;2023-08-30T11:12:19;99559.27;;;17.32;100.00
31911;BME280;18457;52.432;16.914;2023-08-30T11:14:53;99559.80;;;17.30;100.00
31911;BME280;18457;52.432;16.914;2023-08-30T11:17:27;99562.27;;;17.31;100.00
31911;BME280;18457;52.432;16.914;2023-08-30T11:20:08;99563.77;;;17.20;100.00
31911;BME280;18457;52.432;16.914;2023-08-30T11:23:05;99561.13;;;17.24;100.00
31911;BME280;18457;52.432;16.914;2023-08-30T11:25:37;99560.52;;;17.30;100.00
31911;BME280;18457;52.432;16.914;2023-08-30T11:28:09;99566.84;;;17.42;100.00
31911;BME280;18457;52.432;16.914;2023-08-30T11:30:42;99566.52;;;17.36;100.00
31911;BME280;18457;52.432;16.914;2023-08-30T11:33:14;99565.63;;;17.27;100.00
31911;BME280;18457;52.432;16.914;2023-08-30T11:35:51;99570.23;;;17.13;100.00
31911;BME280;18457;52.432;16.914;2023-08-30T11:38:25;99573.48;;;17.14;100.00
31911;BME280;18457;52.432;16.914;2023-08-30T11:40:58;99573.60;;;17.23;100.00
31911;BME280;18457;52.432;16.914;2023-08-30T11:43:30;99571.55;;;17.24;100.00
31911;BME280;18457;52.432;16.914;2023-08-30T11:46:02;99567.04;;;17.31;100.00
31911;BME280;18457;52.432;16.914;2023-08-30T11:48:35;99566.46;;;17.37;100.00
31911;BME280;18457;52.432;16.914;2023-08-30T11:51:07;99568.91;;;17.53;100.00
31911;BME280;18457;52.432;16.914;2023-08-30T11:53:38;99572.20;;;17.56;100.00
31911;BME280;18457;52.432;16.914;2023-08-30T11:56:12;99566.84;;;17.65;100.00
31911;BME280;18457;52.432;16.914;2023-08-30T11:58:44;99567.71;;;17.60;100.00
31911;BME280;18457;52.432;16.914;2023-08-30T12:01:19;99566.57;;;17.66;100.00
31911;BME280;18457;52.432;16.914;2023-08-30T12:03:51;99567.38;;;17.68;100.00
31911;BME280;18457;52.432;16.914;2023-08-30T12:06:24;99568.98;;;17.79;100.00
31911;BME280;18457;52.432;16.914;2023-08-30T12:09:00;99569.33;;;17.72;100.00
31911;BME280;18457;52.432;16.914;2023-08-30T12:11:34;99574.66;;;17.79;100.00
31911;BME280;18457;52.432;16.914;2023-08-30T12:14:06;99573.98;;;17.81;100.00
31911;BME280;18457;52.432;16.914;2023-08-30T12:16:39;99576.87;;;17.92;100.00
31911;BME280;18457;52.432;16.914;2023-08-30T12:19:11;99576.51;;;17.87;100.00
31911;BME280;18457;52.432;16.914;2023-08-30T12:21:46;99577.37;;;17.93;100.00
31911;BME280;18457;52.432;16.914;2023-08-30T12:24:18;99578.25;;;17.91;100.00
31911;BME280;18457;52.432;16.914;2023-08-30T12:26:50;99581.14;;;17.80;100.00
31911;BME280;18457;52.432;16.914;2023-08-30T12:29:22;99578.64;;;17.58;100.00
31911;BME280;18457;52.432;16.914;2023-08-30T12:31:54;99578.52;;;17.54;100.00
31911;BME280;18457;52.432;16.914;2023-08-30T12:34:26;99578.57;;;17.62;100.00
31911;BME280;18457;52.432;16.914;2023-08-30T12:36:58;99576.95;;;17.67;100.00
31911;BME280;18457;52.432;16.914;2023-08-30T12:39:34;59746.35;;;-40.59;59.60
31911;BME280;18457;52.432;16.914;2023-08-30T12:42:07;-1.00;;;-128.00;-1.00
31911;BME280;18457;52.432;16.914;2023-08-30T12:44:40;-1.00;;;-128.00;-1.00
31911;BME280;18457;52.432;16.914;2023-08-30T12:47:12;-1.00;;;-128.00;-1.00
31911;BME280;18457;52.432;16.914;2023-08-30T12:49:44;-1.00;;;-128.00;-1.00
31911;BME280;18457;52.432;16.914;2023-08-30T12:52:16;-1.00;;;-128.00;-1.00
31911;BME280;18457;52.432;16.914;2023-08-30T12:54:49;-1.00;;;-128.00;-1.00
31911;BME280;18457;52.432;16.914;2023-08-30T12:57:23;-1.00;;;-128.00;-1.00
31911;BME280;18457;52.432;16.914;2023-08-30T12:59:54;-1.00;;;-128.00;-1.00
31911;BME280;18457;52.432;16.914;2023-08-30T13:02:27;-1.00;;;-128.00;-1.00
31911;BME280;18457;52.432;16.914;2023-08-30T13:04:59;-1.00;;;-128.00;-1.00
31911;BME280;18457;52.432;16.914;2023-08-30T13:07:31;-1.00;;;-128.00;-1.00
31911;BME280;18457;52.432;16.914;2023-08-30T13:10:31;-1.00;;;-128.00;-1.00
31911;BME280;18457;52.432;16.914;2023-08-30T13:13:03;-1.00;;;-128.00;-1.00
31911;BME280;18457;52.432;16.914;2023-08-30T13:15:35;-1.00;;;-128.00;-1.00
31911;BME280;18457;52.432;16.914;2023-08-30T13:18:07;-1.00;;;-128.00;-1.00